Time;durP1;ratioP1;P1;durP2;ratioP2;P2;SDS_P1;SDS_P2;PMS_P1;PMS_P2;Temp;Humidity;BMP_temperature;BMP_pressure;BME280_temperature;BME280_humidity;BME280_pressure;Samples;Min_cycle;Max_cycle;Signal;HPM_P1;HPM_P2
2023/01/02 00:01:29;;;;;;;70.03;10.77;;;;;;;9.29;100.00;98219.00;5030279;28;20473;-55
2023/01/02 00:03:55;;;;;;;71.13;9.30;;;;;;;9.71;100.00;98222.69;5031551;28;20031;-55
2023/01/02 00:06:21;;;;;;;56.75;9.00;;;;;;;10.15;100.00;98217.59;5030800;28;20036;-56
2023/01/02 00:08:47;;;;;;;58.92;9.20;;;;;;;10.25;100.00;98216.75;5030309;28;20029;-54
2023/01/02 00:11:12;;;;;;;97.82;12.15;;;;;;;10.16;100.00;98214.13;5028681;28;20099;-57
2023/01/02 00:13:37;;;;;;;76.90;10.25;;;;;;;10.20;100.00;98210.69;5029972;28;20387;-54
2023/01/02 00:16:03;;;;;;;82.35;10.10;;;;;;;10.32;100.00;98203.78;5030073;28;20029;-54
2023/01/02 00:18:29;;;;;;;67.32;8.88;;;;;;;10.53;100.00;98205.53;5030790;28;20040;-54
2023/01/02 00:20:54;;;;;;;54.38;8.57;;;;;;;10.45;100.00;98202.94;5030450;28;20135;-55
2023/01/02 00:23:19;;;;;;;74.10;9.75;;;;;;;10.25;100.00;98195.09;5027367;28;20037;-55
2023/01/02 00:25:47;;;;;;;53.95;8.43;;;;;;;10.11;100.00;98193.34;5029368;28;20036;-55
2023/01/02 00:28:12;;;;;;;72.95;9.60;;;;;;;10.21;100.00;98195.97;5031896;28;20112;-54
2023/01/02 00:30:37;;;;;;;58.67;8.68;;;;;;;10.32;100.00;98180.38;5030025;28;20029;-55
2023/01/02 00:33:03;;;;;;;72.65;9.15;;;;;;;10.32;100.00;98182.97;5030457;28;20060;-59
2023/01/02 00:35:29;;;;;;;75.32;9.95;;;;;;;10.47;100.00;98180.41;5029860;28;20385;-55
2023/01/02 00:37:54;;;;;;;61.10;8.48;;;;;;;10.49;100.00;98185.59;5030966;28;20056;-57
2023/01/02 00:40:20;;;;;;;74.70;10.68;;;;;;;10.20;100.00;98186.44;5028777;28;20116;-56
2023/01/02 00:42:45;;;;;;;64.13;9.88;;;;;;;10.07;100.00;98180.34;5030525;28;20056;-56
2023/01/02 00:45:10;;;;;;;66.63;9.18;;;;;;;10.14;100.00;98172.53;5030899;28;20501;-55
2023/01/02 00:47:36;;;;;;;70.80;9.18;;;;;;;10.24;100.00;98169.97;5029340;28;20498;-55
2023/01/02 00:50:02;;;;;;;73.30;9.50;;;;;;;10.23;100.00;98169.09;5028676;28;20029;-55
2023/01/02 00:52:27;;;;;;;60.42;8.65;;;;;;;10.21;100.00;98170.81;5029523;28;20036;-55
2023/01/02 00:54:52;;;;;;;68.18;9.05;;;;;;;10.32;100.00;98164.78;5025907;28;20120;-54
2023/01/02 00:57:18;;;;;;;61.28;8.23;;;;;;;10.50;100.00;98167.41;5029760;28;20036;-55
2023/01/02 00:59:43;;;;;;;98.45;11.05;;;;;;;10.58;100.00;98156.13;5030209;28;20033;-56
2023/01/02 01:02:08;;;;;;;59.40;8.50;;;;;;;10.60;100.00;98162.19;5028642;28;20046;-54
2023/01/02 01:04:35;;;;;;;72.03;9.05;;;;;;;10.60;100.00;98155.25;5031317;28;20028;-54
2023/01/02 01:07:01;;;;;;;57.80;8.13;;;;;;;10.38;100.00;98163.03;5030079;28;20039;-54
2023/01/02 01:09:26;;;;;;;62.38;8.88;;;;;;;10.48;100.00;98150.06;5034194;28;20037;-56
2023/01/02 01:11:51;;;;;;;83.60;9.70;;;;;;;10.68;100.00;98157.84;5029695;28;20911;-56
2023/01/02 01:14:17;;;;;;;60.13;8.43;;;;;;;10.73;100.00;98150.91;5035674;28;20031;-55
2023/01/02 01:16:42;;;;;;;72.88;10.07;;;;;;;10.80;100.00;98138.75;5036431;28;20052;-55
2023/01/02 01:19:08;;;;;;;63.60;8.13;;;;;;;10.81;100.00;98141.34;5032021;28;20064;-54
2023/01/02 01:21:34;;;;;;;67.13;7.95;;;;;;;10.88;100.00;98130.94;5033344;28;20045;-55
2023/01/02 01:23:59;;;;;;;64.82;7.93;;;;;;;10.98;100.00;98119.63;5033315;28;20682;-55
2023/01/02 01:26:25;;;;;;;58.83;7.47;;;;;;;11.18;100.00;98116.09;5033165;28;20489;-54
2023/01/02 01:28:52;;;;;;;66.25;8.15;;;;;;;11.28;100.00;98116.94;5033801;28;20028;-54
2023/01/02 01:31:17;;;;;;;73.43;8.68;;;;;;;11.41;100.00;98118.63;5033145;28;20033;-54
2023/01/02 01:33:44;;;;;;;58.97;7.68;;;;;;;11.48;100.00;98122.06;5032191;28;20038;-54
2023/01/02 01:36:20;;;;;;;76.05;8.55;;;;;;;11.58;100.00;98139.34;5031749;28;20391;-54
2023/01/02 01:38:46;;;;;;;58.25;8.40;;;;;;;11.18;100.00;98127.38;5035111;28;20068;-55
2023/01/02 01:41:14;;;;;;;93.80;10.63;;;;;;;11.07;100.00;98131.75;5030511;28;20422;-54
2023/01/02 01:43:49;;;;;;;73.35;8.50;;;;;;;11.23;100.00;98132.56;5034348;28;20036;-55
2023/01/02 01:46:33;;;;;;;71.80;8.65;;;;;;;11.43;100.00;98129.03;5031606;28;20047;-54
2023/01/02 01:49:07;;;;;;;71.38;9.15;;;;;;;11.33;100.00;98116.03;5032264;28;20021;-55
2023/01/02 01:51:40;;;;;;;60.92;7.70;;;;;;;11.61;100.00;98122.00;5031840;28;20659;-54
2023/01/02 01:54:09;;;;;;;82.50;9.13;;;;;;;11.62;100.00;98121.97;5035046;28;20029;-55
2023/01/02 01:56:39;;;;;;;62.30;7.55;;;;;;;11.75;100.00;98124.50;5034289;28;20033;-55
2023/01/02 01:59:06;;;;;;;51.78;7.10;;;;;;;11.68;100.00;98129.75;5032706;28;20249;-55
2023/01/02 02:01:32;;;;;;;71.50;8.55;;;;;;;11.86;100.00;98122.72;5030252;28;20672;-55
2023/01/02 02:03:58;;;;;;;61.50;7.95;;;;;;;11.61;100.00;98133.25;5034225;28;20028;-55
2023/01/02 02:06:23;;;;;;;75.53;8.40;;;;;;;11.60;100.00;98126.34;5031710;28;20049;-57
2023/01/02 02:09:30;;;;;;;56.55;7.32;;;;;;;11.66;100.00;98126.28;5032836;28;20029;-55
2023/01/02 02:11:55;;;;;;;61.28;8.00;;;;;;;11.44;100.00;98123.78;5034852;28;20044;-55
2023/01/02 02:14:21;;;;;;;70.40;8.43;;;;;;;11.38;100.00;98118.63;5032087;28;20100;-54
2023/01/02 02:16:55;;;;;;;55.85;7.65;;;;;;;11.30;100.00;98117.78;5031571;28;20056;-55
2023/01/02 02:19:48;;;;;;;65.70;8.02;;;;;;;11.12;100.00;98111.78;5030740;28;20033;-55
2023/01/02 02:22:55;;;;;;;58.47;7.22;;;;;;;11.25;100.00;98109.13;5030367;28;20210;-55
2023/01/02 02:25:29;;;;;;;52.00;7.53;;;;;;;11.18;100.00;98109.16;5016134;28;20116;-55
2023/01/02 02:27:57;;;;;;;55.65;8.25;;;;;;;10.83;100.00;98102.31;5016713;28;20029;-55
2023/01/02 02:30:44;;;;;;;58.15;7.75;;;;;;;11.02;100.00;98103.13;5023800;28;20037;-57
2023/01/02 02:33:37;;;;;;;54.42;7.50;;;;;;;11.15;100.00;98101.38;5031755;28;20064;-55
2023/01/02 02:36:25;;;;;;;63.72;8.05;;;;;;;11.18;100.00;98097.88;5033296;28;20033;-55
2023/01/02 02:39:18;;;;;;;56.75;7.55;;;;;;;11.11;100.00;98096.16;5031559;28;20072;-55
2023/01/02 02:41:52;;;;;;;71.07;8.38;;;;;;;11.10;100.00;98081.44;5030191;28;20091;-55
2023/01/02 02:44:33;;;;;;;52.78;7.53;;;;;;;11.15;100.00;98092.69;5032697;28;20741;-55
2023/01/02 02:47:19;;;;;;;59.33;7.75;;;;;;;10.98;100.00;98090.16;5031647;28;20609;-57
2023/01/02 02:49:52;;;;;;;97.40;9.70;;;;;;;11.06;100.00;98084.03;5031671;28;20027;-58
2023/01/02 02:52:28;;;;;;;59.17;7.57;;;;;;;10.99;100.00;98086.66;5029403;28;20049;-56
2023/01/02 02:55:23;;;;;;;80.20;8.30;;;;;;;10.87;100.00;98087.59;5032243;28;20025;-56
2023/01/02 02:57:50;;;;;;;81.50;8.65;;;;;;;11.00;100.00;98078.88;5029807;28;20060;-55
2023/01/02 03:00:18;;;;;;;56.53;7.10;;;;;;;10.99;100.00;98082.31;5030955;28;20031;-56
2023/01/02 03:02:44;;;;;;;57.30;6.90;;;;;;;11.06;100.00;98078.81;5028816;28;20541;-55
2023/01/02 03:05:15;;;;;;;59.97;7.25;;;;;;;10.99;100.00;98071.91;5029524;28;20033;-54
2023/01/02 03:07:54;;;;;;;68.35;7.78;;;;;;;10.81;100.00;98073.69;5032484;28;20036;-55
2023/01/02 03:10:19;;;;;;;66.63;7.90;;;;;;;10.81;100.00;98073.69;5030926;28;20037;-55
2023/01/02 03:13:11;;;;;;;52.28;6.93;;;;;;;10.87;100.00;98074.56;5031053;28;20033;-57
2023/01/02 03:15:53;;;;;;;65.87;7.57;;;;;;;10.96;100.00;98077.16;5030644;28;20036;-55
2023/01/02 03:18:40;;;;;;;61.42;7.60;;;;;;;10.91;100.00;98071.09;5031663;28;20021;-56
2023/01/02 03:21:20;;;;;;;95.82;9.82;;;;;;;11.15;100.00;98069.25;5026593;28;20067;-55
2023/01/02 03:23:47;;;;;;;54.05;6.78;;;;;;;11.08;100.00;98073.63;5030569;28;20026;-55
2023/01/02 03:26:20;;;;;;;68.28;8.02;;;;;;;10.98;100.00;98059.78;5032506;28;20816;-55
2023/01/02 03:28:52;;;;;;;56.08;6.72;;;;;;;10.97;100.00;98065.84;5030354;28;20031;-56
2023/01/02 03:31:20;;;;;;;86.75;9.25;;;;;;;11.03;100.00;98058.00;5027705;28;20040;-55
2023/01/02 03:33:50;;;;;;;52.45;6.80;;;;;;;11.18;100.00;98062.28;5031436;28;20138;-55
2023/01/02 03:36:21;;;;;;;73.88;7.85;;;;;;;11.06;100.00;98060.59;5031555;28;20037;-54
2023/01/02 03:39:02;;;;;;;46.70;6.53;;;;;;;11.16;100.00;98063.16;5035756;28;20693;-56
2023/01/02 03:41:35;;;;;;;74.78;8.63;;;;;;;10.91;100.00;98058.09;5029902;28;20065;-55
2023/01/02 03:44:02;;;;;;;69.43;8.25;;;;;;;10.90;100.00;98049.41;5030153;28;20032;-55
2023/01/02 03:46:46;;;;;;;78.40;8.25;;;;;;;10.79;100.00;98039.03;5029071;28;20041;-55
2023/01/02 03:49:17;;;;;;;56.05;7.13;;;;;;;10.87;100.00;98035.56;5031557;28;20029;-57
2023/01/02 03:51:43;;;;;;;65.72;7.50;;;;;;;10.93;100.00;98040.72;5027900;28;20037;-55
2023/01/02 03:54:10;;;;;;;65.47;7.68;;;;;;;11.11;100.00;98038.91;5031178;28;20020;-54
2023/01/02 03:56:53;;;;;;;66.70;7.28;;;;;;;11.26;100.00;98044.03;5029773;28;20508;-55
2023/01/02 03:59:30;;;;;;;60.28;7.10;;;;;;;11.36;100.00;98033.56;5031811;28;20089;-55
2023/01/02 04:02:01;;;;;;;50.38;6.55;;;;;;;11.37;100.00;98030.09;5029291;28;20064;-55
2023/01/02 04:04:38;;;;;;;64.85;7.93;;;;;;;11.26;100.00;98032.75;5030061;28;20116;-55
2023/01/02 04:07:09;;;;;;;60.53;7.20;;;;;;;11.25;100.00;98037.09;5028887;28;20032;-55
2023/01/02 04:09:37;;;;;;;80.18;8.52;;;;;;;11.25;100.00;98037.09;5030343;28;20032;-54
2023/01/02 04:12:08;;;;;;;65.90;7.78;;;;;;;11.41;100.00;98042.22;5032179;28;20091;-54
2023/01/02 04:14:47;;;;;;;64.93;7.57;;;;;;;11.50;100.00;98044.75;5032755;28;20033;-54
2023/01/02 04:17:15;;;;;;;62.50;7.07;;;;;;;11.48;100.00;98032.63;5028499;28;20118;-54
2023/01/02 04:19:46;;;;;;;90.53;8.90;;;;;;;11.42;100.00;98030.91;5027969;28;20040;-55
2023/01/02 04:22:19;;;;;;;53.30;6.10;;;;;;;11.48;100.00;98040.44;5027484;28;20033;-54
2023/01/02 04:24:51;;;;;;;61.88;7.15;;;;;;;11.58;100.00;98040.38;5030113;28;20086;-54
2023/01/02 04:27:24;;;;;;;57.65;6.93;;;;;;;11.71;100.00;98050.72;5029288;28;20042;-54
2023/01/02 04:29:50;;;;;;;103.90;9.90;;;;;;;11.63;100.00;98048.16;5030722;28;20043;-55
2023/01/02 04:32:24;;;;;;;68.13;8.00;;;;;;;11.68;100.00;98051.59;5029456;28;20036;-54
2023/01/02 04:34:51;;;;;;;64.63;7.63;;;;;;;11.81;100.00;98054.97;5029228;28;20048;-56
2023/01/02 04:37:32;;;;;;;57.83;6.78;;;;;;;11.86;100.00;98047.13;5030879;28;20659;-54
2023/01/02 04:40:03;;;;;;;73.07;7.80;;;;;;;11.81;100.00;98051.53;5029630;28;20025;-55
2023/01/02 04:42:28;;;;;;;65.65;7.43;;;;;;;11.72;100.00;98052.44;5029057;28;20045;-55
2023/01/02 04:44:53;;;;;;;66.28;7.57;;;;;;;11.69;100.00;98053.31;5030613;28;20025;-54
2023/01/02 04:47:19;;;;;;;49.00;6.43;;;;;;;11.80;100.00;98063.66;5028996;28;20045;-54
2023/01/02 04:49:44;;;;;;;99.55;9.40;;;;;;;11.83;100.00;98066.25;5027868;28;20112;-57
2023/01/02 04:52:09;;;;;;;75.70;8.20;;;;;;;11.80;100.00;98063.66;5029128;28;20542;-54
2023/01/02 04:54:35;;;;;;;54.20;6.95;;;;;;;11.78;100.00;98062.84;5031596;28;20036;-56
2023/01/02 04:57:00;;;;;;;70.55;7.85;;;;;;;11.72;100.00;98063.72;5030870;28;20041;-55
2023/01/02 04:59:25;;;;;;;56.22;6.90;;;;;;;11.76;100.00;98064.56;5032067;28;20031;-55
2023/01/02 05:01:51;;;;;;;58.58;6.90;;;;;;;11.82;100.00;98066.28;5029999;28;20889;-55
2023/01/02 05:04:16;;;;;;;69.70;7.63;;;;;;;11.90;100.00;98061.00;5029705;28;20454;-55
2023/01/02 05:06:41;;;;;;;66.35;7.80;;;;;;;11.84;100.00;98059.31;5031041;28;20041;-55
2023/01/02 05:09:07;;;;;;;66.63;7.38;;;;;;;11.69;100.00;98055.09;5032323;28;20032;-55
2023/01/02 05:11:32;;;;;;;58.10;7.38;;;;;;;11.80;100.00;98068.88;5027878;28;20037;-57
2023/01/02 05:13:58;;;;;;;45.97;6.47;;;;;;;11.69;100.00;98068.09;5031347;28;20021;-55
2023/01/02 05:16:23;;;;;;;66.50;7.78;;;;;;;11.59;100.00;98065.53;5027677;28;20038;-56
2023/01/02 05:18:48;;;;;;;56.10;7.40;;;;;;;11.65;100.00;98059.44;5030097;28;20033;-56
2023/01/02 05:24:01;;;;;;;59.28;7.43;;;;;;;11.70;100.00;98062.00;5028547;28;20087;-57
2023/01/02 05:26:27;;;;;;;80.10;8.65;;;;;;;11.71;100.00;98063.75;5025862;28;20037;-55
2023/01/02 05:28:53;;;;;;;63.47;7.30;;;;;;;11.74;100.00;98057.63;5030358;28;20043;-56
2023/01/02 05:31:19;;;;;;;64.20;7.80;;;;;;;11.55;100.00;98065.59;5028320;28;20030;-57
2023/01/02 05:33:49;;;;;;;55.55;7.20;;;;;;;11.57;100.00;98062.09;5029327;28;20079;-55
2023/01/02 05:36:15;;;;;;;67.38;7.35;;;;;;;11.52;100.00;98066.47;5029521;28;20047;-55
2023/01/02 05:38:40;;;;;;;79.45;8.38;;;;;;;11.65;100.00;98066.41;5028344;28;20033;-55
2023/01/02 05:41:06;;;;;;;74.65;8.77;;;;;;;11.60;100.00;98069.03;5026411;28;20040;-56
2023/01/02 05:43:34;;;;;;;64.53;7.72;;;;;;;11.57;100.00;98061.22;5029248;28;20037;-55
2023/01/02 05:46:17;;;;;;;53.05;6.50;;;;;;;11.65;100.00;98063.78;5030104;28;20127;-56
2023/01/02 05:48:43;;;;;;;63.33;7.55;;;;;;;11.66;100.00;98065.50;5029657;28;20065;-56
2023/01/02 05:51:12;;;;;;;78.75;8.23;;;;;;;11.71;100.00;98068.94;5027832;28;20059;-55
2023/01/02 05:53:37;;;;;;;64.70;7.60;;;;;;;11.50;100.00;98070.81;5028701;28;20024;-55
2023/01/02 05:56:10;;;;;;;51.13;6.75;;;;;;;11.51;100.00;98066.47;5028916;28;20096;-56
2023/01/02 05:58:39;;;;;;;49.08;6.97;;;;;;;11.44;100.00;98078.66;5034253;28;20074;-55
2023/01/02 06:01:14;;;;;;;75.45;7.68;;;;;;;11.42;100.00;98085.59;5030762;28;20863;-56
2023/01/02 06:03:43;;;;;;;77.28;8.20;;;;;;;11.41;100.00;98078.69;5032298;28;20379;-56
2023/01/02 06:06:10;;;;;;;59.67;6.90;;;;;;;11.44;100.00;98074.31;5033500;28;20048;-55
2023/01/02 06:08:36;;;;;;;57.88;7.45;;;;;;;11.40;100.00;98075.19;5034351;28;20028;-55
2023/01/02 06:11:03;;;;;;;79.35;8.70;;;;;;;11.44;100.00;98079.50;5030967;28;20113;-56
2023/01/02 06:13:29;;;;;;;57.28;7.07;;;;;;;11.40;100.00;98075.19;5031636;28;20021;-55
2023/01/02 06:15:55;;;;;;;68.68;7.55;;;;;;;11.39;100.00;98075.22;5032425;28;20130;-56
2023/01/02 06:18:21;;;;;;;61.45;7.45;;;;;;;11.32;100.00;98075.25;5033819;28;20048;-55
2023/01/02 06:20:47;;;;;;;57.40;6.97;;;;;;;11.33;100.00;98076.97;5031457;28;20037;-56
2023/01/02 06:23:12;;;;;;;59.95;7.35;;;;;;;11.30;100.00;98084.81;5031705;28;20123;-57
2023/01/02 06:25:37;;;;;;;67.65;7.80;;;;;;;11.25;100.00;98083.94;5030944;28;20045;-56
2023/01/02 06:28:03;;;;;;;74.45;8.10;;;;;;;11.37;100.00;98088.25;5032096;28;20479;-57
2023/01/02 06:30:28;;;;;;;56.70;7.82;;;;;;;11.43;100.00;98076.94;5029819;28;20033;-55
2023/01/02 06:32:55;;;;;;;51.95;6.60;;;;;;;11.58;100.00;98076.00;5032931;28;20104;-56
2023/01/02 06:35:21;;;;;;;69.13;7.47;;;;;;;11.48;100.00;98076.91;5030377;28;20032;-55
2023/01/02 06:37:46;;;;;;;57.17;7.03;;;;;;;11.72;100.00;98073.28;5033010;28;20033;-56
2023/01/02 06:40:12;;;;;;;77.55;9.88;;;;;;;11.71;100.00;98079.38;5031017;28;20148;-56
2023/01/02 06:42:37;;;;;;;61.03;7.70;;;;;;;11.79;100.00;98085.41;5032460;28;20124;-58
2023/01/02 06:45:03;;;;;;;68.80;9.40;;;;;;;11.87;100.00;98087.09;5031398;28;20064;-56
2023/01/02 06:47:28;;;;;;;87.03;9.43;;;;;;;11.75;100.00;98085.41;5031124;28;20052;-56
2023/01/02 06:49:54;;;;;;;62.03;7.47;;;;;;;11.65;100.00;98088.09;5032359;28;20025;-56
2023/01/02 06:52:19;;;;;;;70.75;8.63;;;;;;;11.52;100.00;98100.34;5030651;28;20048;-56
2023/01/02 06:54:44;;;;;;;62.90;9.90;;;;;;;11.79;100.00;98092.34;5033931;28;20029;-56
2023/01/02 06:57:10;;;;;;;72.57;7.97;;;;;;;11.32;100.00;98088.25;5031870;28;20045;-56
2023/01/02 06:59:35;;;;;;;90.72;9.02;;;;;;;10.90;100.00;98090.16;5030856;28;20082;-56
2023/01/02 07:02:01;;;;;;;62.67;7.35;;;;;;;10.63;100.00;98086.75;5032195;28;20403;-56
2023/01/02 07:04:26;;;;;;;68.00;7.70;;;;;;;10.44;100.00;98093.69;5030187;28;20836;-56
2023/01/02 07:06:51;;;;;;;60.22;7.28;;;;;;;10.38;100.00;98098.03;5026797;28;20295;-56
2023/01/02 07:09:17;;;;;;;72.95;7.57;;;;;;;10.57;100.00;98092.00;5028917;28;20409;-56
2023/01/02 07:11:42;;;;;;;56.78;7.18;;;;;;;10.64;100.00;98093.69;5031980;28;21178;-56
2023/01/02 07:14:07;;;;;;;71.93;8.55;;;;;;;10.90;100.00;98095.38;5029172;28;20029;-56
2023/01/02 07:16:33;;;;;;;57.13;7.10;;;;;;;10.89;100.00;98099.72;5030490;28;20448;-56
2023/01/02 07:18:58;;;;;;;61.42;7.20;;;;;;;10.92;100.00;98093.63;5033746;28;20071;-55
2023/01/02 07:21:23;;;;;;;73.38;8.13;;;;;;;10.91;100.00;98094.53;5031819;28;20045;-55
2023/01/02 07:23:49;;;;;;;64.30;7.57;;;;;;;10.96;100.00;98102.28;5031992;28;20419;-56
2023/01/02 07:26:15;;;;;;;61.35;7.90;;;;;;;11.02;100.00;98104.88;5029264;28;20033;-56
2023/01/02 07:28:40;;;;;;;55.55;7.00;;;;;;;11.09;100.00;98110.94;5028841;28;20104;-55
2023/01/02 07:31:10;;;;;;;71.88;8.27;;;;;;;11.29;100.00;98106.50;5031710;28;20194;-55
2023/01/02 07:33:36;;;;;;;71.70;8.13;;;;;;;11.23;100.00;98113.47;5033191;28;20029;-56
2023/01/02 07:36:04;;;;;;;53.42;6.78;;;;;;;11.45;100.00;98106.44;5030722;28;20122;-55
2023/01/02 07:38:30;;;;;;;76.13;8.02;;;;;;;11.58;100.00;98100.28;5030448;28;20032;-55
2023/01/02 07:40:55;;;;;;;61.67;7.30;;;;;;;11.94;100.00;98104.41;5028608;28;20032;-55
2023/01/02 07:43:22;;;;;;;53.25;6.60;;;;;;;11.92;100.00;98109.63;5029124;28;20033;-55
2023/01/02 07:45:48;;;;;;;61.35;7.40;;;;;;;12.04;100.00;98113.03;5031220;28;20033;-55
2023/01/02 07:48:14;;;;;;;62.17;7.60;;;;;;;12.08;100.00;98109.56;5034555;28;20029;-55
2023/01/02 07:50:39;;;;;;;64.65;7.55;;;;;;;12.11;100.00;98109.53;5030949;28;20033;-55
2023/01/02 07:53:05;;;;;;;59.50;6.78;;;;;;;11.96;100.00;98113.09;5031566;28;20035;-55
2023/01/02 07:55:30;;;;;;;52.63;6.47;;;;;;;12.00;100.00;98108.72;5030491;28;20038;-55
2023/01/02 07:57:56;;;;;;;56.92;6.65;;;;;;;12.14;100.00;98113.88;5031237;28;20063;-54
2023/01/02 08:00:21;;;;;;;48.40;6.13;;;;;;;12.20;100.00;98111.19;5029888;28;20957;-55
2023/01/02 08:02:48;;;;;;;58.03;7.38;;;;;;;12.47;100.00;98114.47;5027889;28;20030;-55
2023/01/02 08:05:15;;;;;;;48.00;6.70;;;;;;;12.52;100.00;98119.63;5030369;28;20102;-56
2023/01/02 08:07:41;;;;;;;62.38;7.78;;;;;;;12.30;100.00;98117.19;5029825;28;20104;-57
2023/01/02 08:10:07;;;;;;;57.03;7.18;;;;;;;12.38;100.00;98118.00;5029773;28;20576;-56
2023/01/02 08:12:32;;;;;;;56.70;7.13;;;;;;;12.79;100.00;98126.31;5029232;28;20052;-54
2023/01/02 08:14:58;;;;;;;64.80;7.40;;;;;;;12.88;100.00;98123.63;5029137;28;20981;-55
2023/01/02 08:17:23;;;;;;;52.13;6.70;;;;;;;12.91;100.00;98132.31;5029299;28;20083;-55
2023/01/02 08:19:48;;;;;;;75.57;8.27;;;;;;;13.09;100.00;98120.78;5028341;28;20025;-55
2023/01/02 08:22:14;;;;;;;55.63;6.60;;;;;;;12.99;100.00;98117.44;5030718;28;20040;-56
2023/01/02 08:24:39;;;;;;;62.97;7.68;;;;;;;13.24;100.00;98115.38;5030092;28;20025;-54
2023/01/02 08:27:04;;;;;;;66.60;8.10;;;;;;;13.33;100.00;98116.16;5027543;28;20033;-54
2023/01/02 08:29:30;;;;;;;62.50;7.18;;;;;;;13.25;100.00;98119.72;5029440;28;20025;-55
2023/01/02 08:31:58;;;;;;;44.90;6.45;;;;;;;13.60;100.00;98130.66;5027653;28;20040;-55
2023/01/02 08:34:24;;;;;;;56.92;7.10;;;;;;;14.10;100.00;98127.31;5031826;28;20091;-55
2023/01/02 08:36:49;;;;;;;61.33;7.20;;;;;;;13.93;100.00;98124.97;5030817;28;20045;-55
2023/01/02 08:39:14;;;;;;;70.93;7.90;;;;;;;14.04;100.00;98125.66;5030976;28;20036;-55
2023/01/02 08:41:40;;;;;;;53.85;7.03;;;;;;;14.60;100.00;98131.75;5027941;28;20037;-56
2023/01/02 08:44:06;;;;;;;61.53;7.63;;;;;;;14.41;100.00;98120.72;5031404;28;20021;-55
2023/01/02 08:46:33;;;;;;;54.38;6.57;;;;;;;14.08;99.60;98134.34;5030188;28;20079;-56
2023/01/02 08:48:59;;;;;;;48.90;6.78;;;;;;;13.96;100.00;98124.94;5029984;28;20495;-55
2023/01/02 08:51:25;;;;;;;58.92;6.88;;;;;;;14.14;100.00;98146.47;5027600;28;20047;-55
2023/01/02 08:53:51;;;;;;;50.80;6.50;;;;;;;14.04;100.00;98136.13;5031341;28;20104;-55
2023/01/02 08:56:24;;;;;;;88.85;9.20;;;;;;;14.39;100.00;98141.69;5026750;28;20120;-55
2023/01/02 08:59:01;;;;;;;55.33;6.38;;;;;;;14.39;99.07;98151.28;5030601;28;20070;-55
2023/01/02 09:01:28;;;;;;;71.68;7.22;;;;;;;14.51;100.00;98137.16;5029741;28;20049;-56
2023/01/02 09:03:54;;;;;;;46.00;6.05;;;;;;;14.88;98.32;98140.91;5031525;28;20467;-56
2023/01/02 09:06:23;;;;;;;51.42;6.43;;;;;;;14.88;97.47;98146.97;5030438;28;20815;-56
2023/01/02 09:08:54;;;;;;;57.38;6.35;;;;;;;14.81;94.73;98146.22;5030793;28;20040;-56
2023/01/02 09:11:26;;;;;;;63.90;7.30;;;;;;;14.63;93.94;98141.31;5028149;28;20029;-55
2023/01/02 09:13:52;;;;;;;46.60;6.38;;;;;;;14.54;95.05;98153.66;5030671;28;20021;-56
2023/01/02 09:16:17;;;;;;;46.88;5.80;;;;;;;14.76;99.88;98155.03;5028583;28;20064;-56
2023/01/02 09:18:42;;;;;;;74.07;7.97;;;;;;;14.80;96.96;98164.59;5030567;28;20020;-56
2023/01/02 09:21:08;;;;;;;63.22;7.90;;;;;;;14.78;95.07;98161.16;5026894;28;20584;-55
2023/01/02 09:23:34;;;;;;;45.45;5.93;;;;;;;15.07;99.71;98157.97;5031800;28;20013;-56
2023/01/02 09:26:02;;;;;;;54.63;6.90;;;;;;;14.97;65.38;98170.38;5030133;28;20033;-55
2023/01/02 09:28:30;;;;;;;45.03;6.28;;;;;;;15.26;60.99;98162.00;5030783;28;20041;-55
2023/01/02 09:30:55;;;;;;;66.38;7.50;;;;;;;15.16;61.47;98162.19;5029408;28;20411;-55
2023/01/02 09:33:21;;;;;;;45.83;6.30;;;;;;;15.20;58.33;98170.84;5033951;28;20664;-56
2023/01/02 09:35:47;;;;;;;53.85;6.18;;;;;;;15.52;57.68;98169.38;5033108;28;20107;-56
2023/01/02 09:38:12;;;;;;;56.83;6.93;;;;;;;15.75;55.61;98174.09;5035427;28;20532;-53
2023/01/02 09:40:51;;;;;;;59.17;7.30;;;;;;;16.00;65.85;98168.34;5030505;28;20037;-52
2023/01/02 09:43:26;;;;;;;50.55;6.22;;;;;;;16.30;56.96;98166.81;5031762;28;20484;-53
2023/01/02 09:45:57;;;;;;;52.30;6.95;;;;;;;16.48;56.40;98170.75;5031815;28;20047;-56
2023/01/02 09:48:26;;;;;;;59.97;7.15;;;;;;;16.10;55.67;98171.63;5034718;28;20033;-53
2023/01/02 09:50:53;;;;;;;50.05;6.72;;;;;;;16.49;53.91;98172.47;5033234;28;20545;-54
2023/01/02 09:53:19;;;;;;;57.88;7.10;;;;;;;16.43;53.40;98172.63;5030047;28;20033;-54
2023/01/02 09:55:54;;;;;;;49.60;6.53;;;;;;;16.43;52.61;98165.63;5031184;28;20029;-53
2023/01/02 09:58:52;;;;;;;58.78;6.97;;;;;;;16.65;54.23;98159.81;5030765;28;20542;-55
2023/01/02 10:01:28;;;;;;;76.03;8.35;;;;;;;16.91;54.83;98177.56;5034018;28;20121;-52
2023/01/02 10:04:15;;;;;;;49.38;6.07;;;;;;;16.65;55.29;98175.59;5034924;28;20490;-52
2023/01/02 10:06:51;;;;;;;55.58;6.70;;;;;;;17.14;55.04;98177.84;5032124;28;20127;-52
2023/01/02 10:09:28;;;;;;;62.67;6.95;;;;;;;17.03;53.89;98173.72;5031222;28;20078;-53
2023/01/02 10:12:23;;;;;;;56.50;6.93;;;;;;;16.50;52.55;98167.19;5030791;28;20622;-52
2023/01/02 10:14:59;;;;;;;53.03;6.72;;;;;;;16.99;54.99;98158.94;5033997;28;20810;-56
2023/01/02 10:17:28;;;;;;;69.75;8.10;;;;;;;16.47;53.41;98159.38;5030328;28;20038;-57
2023/01/02 10:20:26;;;;;;;52.47;6.60;;;;;;;16.69;54.55;98161.47;5032696;28;20048;-53
2023/01/02 10:23:19;;;;;;;48.35;6.55;;;;;;;16.84;55.41;98169.84;5032450;28;20045;-54
2023/01/02 10:25:54;;;;;;;36.78;5.57;;;;;;;17.03;55.62;98160.59;5032737;28;20115;-54
2023/01/02 10:28:19;;;;;;;45.38;6.03;;;;;;;16.96;56.62;98163.44;5033008;28;20384;-55
2023/01/02 10:31:15;;;;;;;46.88;6.10;;;;;;;17.04;58.05;98166.72;5031177;28;20555;-57
2023/01/02 10:33:56;;;;;;;53.00;6.50;;;;;;;17.05;52.35;98160.59;5027184;28;20044;-53
2023/01/02 10:36:25;;;;;;;50.08;6.20;;;;;;;17.13;54.62;98165.63;5032962;28;20033;-54
2023/01/02 10:38:57;;;;;;;47.20;6.05;;;;;;;17.23;60.32;98161.00;5032341;28;20056;-53
2023/01/02 10:41:24;;;;;;;49.05;6.10;;;;;;;17.15;52.44;98169.94;5030208;28;20036;-53
2023/01/02 10:43:54;;;;;;;59.28;7.15;;;;;;;17.50;53.37;98169.00;5031173;28;20037;-53
2023/01/02 10:46:19;;;;;;;52.92;6.65;;;;;;;17.67;53.15;98166.72;5032326;28;20049;-52
2023/01/02 10:48:46;;;;;;;63.20;7.47;;;;;;;17.74;50.91;98166.56;5030962;28;20111;-55
2023/01/02 10:51:14;;;;;;;65.72;7.80;;;;;;;17.63;51.23;98165.09;5035858;28;20025;-53
2023/01/02 10:53:40;;;;;;;65.25;7.25;;;;;;;18.07;65.81;98154.13;5033605;28;20047;-53
2023/01/02 10:56:17;;;;;;;61.10;7.05;;;;;;;18.13;65.35;98157.50;5030837;28;20041;-53
2023/01/02 10:58:47;;;;;;;57.88;6.97;;;;;;;17.86;55.27;98160.06;5033144;28;20040;-53
2023/01/02 11:01:18;;;;;;;67.63;7.18;;;;;;;17.72;59.88;98163.97;5033399;28;20079;-53
2023/01/02 11:03:48;;;;;;;48.47;6.15;;;;;;;17.73;53.09;98154.28;5032282;28;20267;-55
2023/01/02 11:06:20;;;;;;;48.33;6.13;;;;;;;17.88;52.23;98142.44;5029782;28;20116;-53
2023/01/02 11:08:57;;;;;;;48.20;6.05;;;;;;;17.80;51.12;98148.81;5032771;28;20593;-54
2023/01/02 11:11:23;;;;;;;37.75;5.28;;;;;;;17.97;50.61;98147.44;5031029;28;20072;-55
2023/01/02 11:13:51;;;;;;;48.83;6.47;;;;;;;18.44;49.14;98148.63;5030990;28;20025;-54
2023/01/02 11:16:17;;;;;;;50.60;6.25;;;;;;;18.57;47.53;98144.69;5027692;28;20056;-55
2023/01/02 11:18:52;;;;;;;50.03;6.00;;;;;;;18.43;45.81;98139.00;5033365;28;20047;-54
2023/01/02 11:21:28;;;;;;;70.28;7.55;;;;;;;18.36;46.55;98146.25;5032514;28;20068;-53
2023/01/02 11:24:00;;;;;;;45.05;5.93;;;;;;;18.43;54.11;98141.63;5032261;28;20036;-55
2023/01/02 11:26:26;;;;;;;50.75;6.25;;;;;;;18.29;50.91;98142.94;5029736;28;20029;-54
2023/01/02 11:28:54;;;;;;;53.72;6.32;;;;;;;18.34;50.65;98141.03;5031173;28;20021;-55
2023/01/02 11:31:20;;;;;;;62.63;7.22;;;;;;;18.29;49.97;98140.31;5031791;28;20041;-56
2023/01/02 11:33:46;;;;;;;60.17;6.72;;;;;;;18.43;50.13;98146.91;5030549;28;20636;-55